AXM105 WMKN-WMKL
Flight info
| Callsign | AXM105 |
|---|---|
| Flight time | 0h 44m |
| Altitude | 22000 |
| Route | LASOB1B LASOB W540 VKB W546 VPG W525 KAPKO KAPKO1E |
| Aircraft | A20N/M-SDE2E3FGHIRWXY/LB1 |
Departure
| Time | 2026-04-25 07:30 |
|---|---|
| Airport | Sultan Mahmud Airport (WMKN) |
Arrival
| Time | 2026-04-25 08:14 |
|---|---|
| Airport | Langkawi International Airport (WMKL) |
| Time | Latitude | Longitude | Altitude | Speed | Heading |
|---|---|---|---|---|---|
| 2026-04-25 06:58 | 5.38019 | 103.10484 | 34 ft | 0 kts | 135° |
| 2026-04-25 07:21 | 5.38025 | 103.10478 | 34 ft | 2 kts | 135° |
| 2026-04-25 07:21 | 5.38035 | 103.10468 | 34 ft | 2 kts | 135° |
| 2026-04-25 07:21 | 5.38043 | 103.10460 | 34 ft | 0 kts | 135° |
| 2026-04-25 07:21 | 5.38052 | 103.10450 | 33 ft | 2 kts | 121° |
| 2026-04-25 07:22 | 5.38058 | 103.10436 | 33 ft | 2 kts | 108° |
| 2026-04-25 07:22 | 5.38061 | 103.10422 | 33 ft | 2 kts | 93° |
| 2026-04-25 07:22 | 5.38061 | 103.10407 | 33 ft | 2 kts | 79° |
| 2026-04-25 07:22 | 5.38056 | 103.10392 | 33 ft | 2 kts | 64° |
| 2026-04-25 07:23 | 5.38049 | 103.10380 | 33 ft | 2 kts | 50° |
| 2026-04-25 07:23 | 5.38044 | 103.10375 | 33 ft | 1 kts | 43° |
| 2026-04-25 07:23 | 5.38042 | 103.10372 | 33 ft | 0 kts | 44° |
| 2026-04-25 07:25 | 5.38047 | 103.10377 | 33 ft | 2 kts | 44° |
| 2026-04-25 07:25 | 5.38067 | 103.10397 | 33 ft | 5 kts | 44° |
| 2026-04-25 07:25 | 5.38104 | 103.10414 | 32 ft | 6 kts | 354° |
| 2026-04-25 07:26 | 5.38147 | 103.10381 | 32 ft | 8 kts | 317° |
| 2026-04-25 07:26 | 5.38197 | 103.10336 | 31 ft | 10 kts | 317° |
| 2026-04-25 07:26 | 5.38266 | 103.10333 | 30 ft | 12 kts | 33° |
| 2026-04-25 07:26 | 5.38334 | 103.10398 | 30 ft | 14 kts | 44° |
| 2026-04-25 07:27 | 5.38411 | 103.10474 | 30 ft | 15 kts | 44° |
| 2026-04-25 07:27 | 5.38492 | 103.10552 | 30 ft | 16 kts | 43° |
| 2026-04-25 07:27 | 5.38575 | 103.10633 | 30 ft | 17 kts | 44° |
| 2026-04-25 07:27 | 5.38658 | 103.10716 | 30 ft | 16 kts | 45° |
| 2026-04-25 07:28 | 5.38742 | 103.10798 | 30 ft | 17 kts | 44° |
| 2026-04-25 07:28 | 5.38833 | 103.10886 | 28 ft | 20 kts | 44° |
| 2026-04-25 07:28 | 5.38940 | 103.10991 | 24 ft | 22 kts | 44° |
| 2026-04-25 07:28 | 5.39057 | 103.11106 | 16 ft | 24 kts | 43° |
| 2026-04-25 07:29 | 5.39202 | 103.11186 | 9 ft | 17 kts | 22° |
| 2026-04-25 07:29 | 5.39208 | 103.11244 | 8 ft | 11 kts | 186° |
| 2026-04-25 07:29 | 5.39163 | 103.11209 | 10 ft | 5 kts | 227° |
| 2026-04-25 07:29 | 5.39116 | 103.11161 | 12 ft | 28 kts | 225° |
| 2026-04-25 07:30 | 5.38804 | 103.10857 | 29 ft | 94 kts | 224° |
| 2026-04-25 07:30 | 5.38187 | 103.10254 | 31 ft | 151 kts | 224° |
| 2026-04-25 07:30 | 5.37361 | 103.09446 | 311 ft | 171 kts | 224° |
| 2026-04-25 07:30 | 5.36516 | 103.08598 | 841 ft | 175 kts | 225° |
| 2026-04-25 07:31 | 5.35659 | 103.07732 | 1443 ft | 178 kts | 226° |
| 2026-04-25 07:31 | 5.34966 | 103.06722 | 1921 ft | 180 kts | 245° |
| 2026-04-25 07:31 | 5.34465 | 103.05514 | 2197 ft | 194 kts | 250° |
| 2026-04-25 07:31 | 5.33982 | 103.04201 | 2484 ft | 208 kts | 251° |
| 2026-04-25 07:32 | 5.33461 | 103.02791 | 2706 ft | 228 kts | 250° |
| 2026-04-25 07:32 | 5.32878 | 103.01247 | 3048 ft | 245 kts | 250° |
| 2026-04-25 07:32 | 5.32241 | 102.99591 | 3390 ft | 262 kts | 250° |
| 2026-04-25 07:32 | 5.31558 | 102.97835 | 3784 ft | 278 kts | 250° |
| 2026-04-25 07:33 | 5.30850 | 102.96024 | 4444 ft | 282 kts | 250° |
| 2026-04-25 07:33 | 5.30128 | 102.94188 | 5193 ft | 284 kts | 250° |
| 2026-04-25 07:33 | 5.29411 | 102.92364 | 5928 ft | 286 kts | 250° |
| 2026-04-25 07:33 | 5.28685 | 102.90521 | 6680 ft | 288 kts | 250° |
| 2026-04-25 07:34 | 5.27972 | 102.88711 | 7427 ft | 290 kts | 251° |
| 2026-04-25 07:34 | 5.27471 | 102.87437 | 7956 ft | 291 kts | 251° |
| 2026-04-25 07:34 | 5.26729 | 102.85553 | 8736 ft | 293 kts | 251° |
| 2026-04-25 07:34 | 5.25977 | 102.83643 | 9516 ft | 294 kts | 251° |
| 2026-04-25 07:35 | 5.25238 | 102.81763 | 10270 ft | 295 kts | 251° |
| 2026-04-25 07:35 | 5.24619 | 102.79773 | 10736 ft | 305 kts | 266° |
| 2026-04-25 07:35 | 5.24908 | 102.77634 | 11027 ft | 317 kts | 291° |
| 2026-04-25 07:35 | 5.25798 | 102.75585 | 11339 ft | 332 kts | 296° |
| 2026-04-25 07:36 | 5.26827 | 102.73418 | 11625 ft | 348 kts | 295° |
| 2026-04-25 07:36 | 5.27849 | 102.71182 | 11888 ft | 363 kts | 294° |
| 2026-04-25 07:36 | 5.28888 | 102.68809 | 12206 ft | 375 kts | 293° |
| 2026-04-25 07:36 | 5.29911 | 102.66394 | 12660 ft | 383 kts | 293° |
| 2026-04-25 07:37 | 5.30958 | 102.63879 | 13016 ft | 392 kts | 292° |
| 2026-04-25 07:37 | 5.32005 | 102.61336 | 13544 ft | 396 kts | 292° |
| 2026-04-25 07:37 | 5.33050 | 102.58782 | 14111 ft | 399 kts | 292° |
| 2026-04-25 07:37 | 5.34099 | 102.56210 | 14650 ft | 402 kts | 292° |
| 2026-04-25 07:38 | 5.35157 | 102.53608 | 15174 ft | 406 kts | 291° |
| 2026-04-25 07:38 | 5.36224 | 102.50980 | 15697 ft | 409 kts | 291° |
| 2026-04-25 07:38 | 5.37298 | 102.48334 | 16209 ft | 412 kts | 291° |
| 2026-04-25 07:38 | 5.38374 | 102.45679 | 16709 ft | 416 kts | 291° |
| 2026-04-25 07:39 | 5.39462 | 102.42994 | 17199 ft | 419 kts | 291° |
| 2026-04-25 07:39 | 5.40566 | 102.40269 | 17683 ft | 422 kts | 291° |
| 2026-04-25 07:39 | 5.41675 | 102.37530 | 18153 ft | 426 kts | 291° |
| 2026-04-25 07:39 | 5.42786 | 102.34786 | 18616 ft | 429 kts | 291° |
| 2026-04-25 07:40 | 5.43904 | 102.32015 | 19068 ft | 433 kts | 291° |
| 2026-04-25 07:40 | 5.45031 | 102.29216 | 19512 ft | 436 kts | 291° |
| 2026-04-25 07:40 | 5.46164 | 102.26406 | 19951 ft | 439 kts | 290° |
| 2026-04-25 07:40 | 5.47321 | 102.23541 | 20392 ft | 442 kts | 290° |
| 2026-04-25 07:41 | 5.48481 | 102.20669 | 20818 ft | 446 kts | 290° |
| 2026-04-25 07:41 | 5.49641 | 102.17798 | 21234 ft | 449 kts | 290° |
| 2026-04-25 07:41 | 5.50808 | 102.14909 | 21644 ft | 452 kts | 290° |
| 2026-04-25 07:41 | 5.51993 | 102.11974 | 21868 ft | 455 kts | 290° |
| 2026-04-25 07:42 | 5.53195 | 102.08998 | 21876 ft | 455 kts | 290° |
| 2026-04-25 07:42 | 5.54362 | 102.06103 | 21882 ft | 454 kts | 290° |
| 2026-04-25 07:42 | 5.55556 | 102.03143 | 21884 ft | 455 kts | 290° |
| 2026-04-25 07:42 | 5.56738 | 102.00217 | 21885 ft | 455 kts | 290° |
| 2026-04-25 07:43 | 5.57820 | 101.97266 | 21878 ft | 453 kts | 284° |
| 2026-04-25 07:43 | 5.58420 | 101.94177 | 21882 ft | 451 kts | 274° |
| 2026-04-25 07:43 | 5.58465 | 101.91004 | 21883 ft | 450 kts | 264° |
| 2026-04-25 07:43 | 5.58035 | 101.87933 | 21889 ft | 449 kts | 259° |
| 2026-04-25 07:44 | 5.57470 | 101.84837 | 21887 ft | 449 kts | 258° |
| 2026-04-25 07:44 | 5.56890 | 101.81782 | 21887 ft | 449 kts | 258° |
| 2026-04-25 07:44 | 5.56304 | 101.78690 | 21886 ft | 449 kts | 258° |
| 2026-04-25 07:44 | 5.55725 | 101.75616 | 21886 ft | 449 kts | 258° |
| 2026-04-25 07:45 | 5.55150 | 101.72536 | 21886 ft | 449 kts | 258° |
| 2026-04-25 07:45 | 5.54580 | 101.69465 | 21886 ft | 449 kts | 258° |
| 2026-04-25 07:45 | 5.54012 | 101.66396 | 21886 ft | 449 kts | 258° |
| 2026-04-25 07:45 | 5.53441 | 101.63308 | 21885 ft | 449 kts | 258° |
| 2026-04-25 07:46 | 5.52877 | 101.60256 | 21884 ft | 449 kts | 258° |
| 2026-04-25 07:46 | 5.52313 | 101.57201 | 21883 ft | 448 kts | 258° |
| 2026-04-25 07:46 | 5.51738 | 101.54085 | 21881 ft | 448 kts | 258° |
| 2026-04-25 07:46 | 5.51171 | 101.51019 | 21879 ft | 448 kts | 258° |
| 2026-04-25 07:47 | 5.50604 | 101.47952 | 21877 ft | 448 kts | 258° |
| 2026-04-25 07:47 | 5.50041 | 101.44907 | 21874 ft | 448 kts | 258° |
| 2026-04-25 07:47 | 5.49472 | 101.41827 | 21872 ft | 448 kts | 258° |
| 2026-04-25 07:47 | 5.48904 | 101.38756 | 21870 ft | 448 kts | 258° |
| 2026-04-25 07:48 | 5.48332 | 101.35664 | 21867 ft | 448 kts | 258° |
| 2026-04-25 07:48 | 5.47773 | 101.32639 | 21866 ft | 448 kts | 258° |
| 2026-04-25 07:48 | 5.47206 | 101.29565 | 21864 ft | 448 kts | 258° |
| 2026-04-25 07:48 | 5.46641 | 101.26498 | 21863 ft | 448 kts | 258° |
| 2026-04-25 07:49 | 5.46069 | 101.23408 | 21862 ft | 448 kts | 258° |
| 2026-04-25 07:49 | 5.45501 | 101.20345 | 21861 ft | 448 kts | 258° |
| 2026-04-25 07:49 | 5.44936 | 101.17297 | 21860 ft | 448 kts | 258° |
| 2026-04-25 07:49 | 5.44363 | 101.14217 | 21860 ft | 448 kts | 258° |
| 2026-04-25 07:50 | 5.43795 | 101.11163 | 21860 ft | 448 kts | 258° |
| 2026-04-25 07:50 | 5.43220 | 101.08071 | 21860 ft | 448 kts | 258° |
| 2026-04-25 07:50 | 5.42652 | 101.05006 | 21860 ft | 448 kts | 258° |
| 2026-04-25 07:50 | 5.42093 | 101.01979 | 21860 ft | 448 kts | 258° |
| 2026-04-25 07:51 | 5.41523 | 100.98888 | 21860 ft | 447 kts | 258° |
| 2026-04-25 07:51 | 5.40962 | 100.95859 | 21860 ft | 446 kts | 258° |
| 2026-04-25 07:51 | 5.40388 | 100.92766 | 21861 ft | 445 kts | 258° |
| 2026-04-25 07:51 | 5.39826 | 100.89741 | 21860 ft | 445 kts | 258° |
| 2026-04-25 07:52 | 5.39260 | 100.86701 | 21861 ft | 444 kts | 258° |
| 2026-04-25 07:52 | 5.38715 | 100.83777 | 21861 ft | 443 kts | 258° |
| 2026-04-25 07:52 | 5.38142 | 100.80705 | 21860 ft | 442 kts | 258° |
| 2026-04-25 07:52 | 5.37578 | 100.77676 | 21860 ft | 442 kts | 258° |
| 2026-04-25 07:53 | 5.37021 | 100.74683 | 21860 ft | 442 kts | 258° |
| 2026-04-25 07:53 | 5.36462 | 100.71662 | 21860 ft | 442 kts | 258° |
| 2026-04-25 07:53 | 5.35903 | 100.68639 | 21860 ft | 442 kts | 258° |
| 2026-04-25 07:53 | 5.35340 | 100.65601 | 21860 ft | 441 kts | 258° |
| 2026-04-25 07:54 | 5.34778 | 100.62581 | 21860 ft | 441 kts | 258° |
| 2026-04-25 07:54 | 5.34215 | 100.59559 | 21860 ft | 441 kts | 258° |
| 2026-04-25 07:54 | 5.33655 | 100.56554 | 21860 ft | 441 kts | 258° |
| 2026-04-25 07:54 | 5.33086 | 100.53501 | 21860 ft | 441 kts | 258° |
| 2026-04-25 07:55 | 5.32520 | 100.50474 | 21860 ft | 441 kts | 258° |
| 2026-04-25 07:55 | 5.31960 | 100.47475 | 21860 ft | 441 kts | 258° |
| 2026-04-25 07:55 | 5.31393 | 100.44443 | 21849 ft | 441 kts | 258° |
| 2026-04-25 07:55 | 5.30827 | 100.41427 | 21505 ft | 433 kts | 258° |
| 2026-04-25 07:56 | 5.30288 | 100.38546 | 21234 ft | 411 kts | 258° |
| 2026-04-25 07:56 | 5.29777 | 100.35805 | 20954 ft | 392 kts | 258° |
| 2026-04-25 07:56 | 5.29299 | 100.33171 | 20644 ft | 376 kts | 261° |
| 2026-04-25 07:56 | 5.29268 | 100.30579 | 20288 ft | 365 kts | 276° |
| 2026-04-25 07:57 | 5.29867 | 100.28194 | 19884 ft | 349 kts | 290° |
| 2026-04-25 07:57 | 5.31000 | 100.26080 | 19468 ft | 335 kts | 303° |
| 2026-04-25 07:57 | 5.32535 | 100.24361 | 19097 ft | 333 kts | 316° |
| 2026-04-25 07:57 | 5.34420 | 100.23042 | 18779 ft | 334 kts | 328° |
| 2026-04-25 07:58 | 5.36494 | 100.21998 | 18457 ft | 332 kts | 331° |
| 2026-04-25 07:58 | 5.38570 | 100.21014 | 18021 ft | 332 kts | 332° |
| 2026-04-25 07:58 | 5.40623 | 100.20045 | 17642 ft | 328 kts | 331° |
| 2026-04-25 07:58 | 5.42681 | 100.19071 | 17286 ft | 325 kts | 331° |
| 2026-04-25 07:59 | 5.44712 | 100.18106 | 16912 ft | 322 kts | 331° |
| 2026-04-25 07:59 | 5.46722 | 100.17146 | 16530 ft | 319 kts | 331° |
| 2026-04-25 07:59 | 5.48701 | 100.16201 | 16148 ft | 317 kts | 331° |
| 2026-04-25 07:59 | 5.50694 | 100.15247 | 15763 ft | 314 kts | 331° |
| 2026-04-25 08:00 | 5.52629 | 100.14320 | 15388 ft | 312 kts | 331° |
| 2026-04-25 08:00 | 5.54577 | 100.13387 | 15008 ft | 309 kts | 331° |
| 2026-04-25 08:00 | 5.56514 | 100.12460 | 14626 ft | 307 kts | 332° |
| 2026-04-25 08:00 | 5.58429 | 100.11543 | 14246 ft | 304 kts | 332° |
| 2026-04-25 08:01 | 5.60315 | 100.10638 | 13908 ft | 301 kts | 332° |
| 2026-04-25 08:01 | 5.62204 | 100.09733 | 13842 ft | 300 kts | 332° |
| 2026-04-25 08:01 | 5.64084 | 100.08831 | 13835 ft | 301 kts | 332° |
| 2026-04-25 08:01 | 5.65984 | 100.07921 | 13817 ft | 300 kts | 332° |
| 2026-04-25 08:02 | 5.67831 | 100.07036 | 13545 ft | 297 kts | 332° |
| 2026-04-25 08:02 | 5.69685 | 100.06146 | 13104 ft | 297 kts | 332° |
| 2026-04-25 08:02 | 5.71556 | 100.05249 | 12708 ft | 295 kts | 332° |
| 2026-04-25 08:02 | 5.73377 | 100.04376 | 12339 ft | 293 kts | 332° |
| 2026-04-25 08:03 | 5.75204 | 100.03502 | 11965 ft | 291 kts | 332° |
| 2026-04-25 08:03 | 5.77011 | 100.02637 | 11585 ft | 289 kts | 332° |
| 2026-04-25 08:03 | 5.78832 | 100.01765 | 11188 ft | 288 kts | 332° |
| 2026-04-25 08:03 | 5.80637 | 100.00899 | 10794 ft | 286 kts | 332° |
| 2026-04-25 08:04 | 5.82421 | 100.00045 | 10385 ft | 286 kts | 332° |
| 2026-04-25 08:04 | 5.84206 | 99.99190 | 10157 ft | 284 kts | 332° |
| 2026-04-25 08:04 | 5.85986 | 99.98332 | 9961 ft | 286 kts | 332° |
| 2026-04-25 08:04 | 5.87751 | 99.97486 | 9616 ft | 284 kts | 332° |
| 2026-04-25 08:05 | 5.89547 | 99.96628 | 9228 ft | 284 kts | 332° |
| 2026-04-25 08:05 | 5.91303 | 99.95786 | 8868 ft | 284 kts | 332° |
| 2026-04-25 08:05 | 5.93087 | 99.94929 | 8527 ft | 284 kts | 332° |
| 2026-04-25 08:05 | 5.94839 | 99.94025 | 8209 ft | 282 kts | 323° |
| 2026-04-25 08:06 | 5.96284 | 99.92722 | 7855 ft | 278 kts | 307° |
| 2026-04-25 08:06 | 5.97339 | 99.91148 | 7547 ft | 275 kts | 301° |
| 2026-04-25 08:06 | 5.98339 | 99.89505 | 7211 ft | 274 kts | 301° |
| 2026-04-25 08:06 | 5.99328 | 99.87876 | 6837 ft | 272 kts | 300° |
| 2026-04-25 08:07 | 6.00299 | 99.86272 | 6508 ft | 270 kts | 300° |
| 2026-04-25 08:07 | 6.01291 | 99.84643 | 6215 ft | 271 kts | 300° |
| 2026-04-25 08:07 | 6.02273 | 99.83039 | 5905 ft | 271 kts | 301° |
| 2026-04-25 08:07 | 6.03259 | 99.81432 | 5643 ft | 269 kts | 301° |
| 2026-04-25 08:08 | 6.04228 | 99.79861 | 5380 ft | 268 kts | 301° |
| 2026-04-25 08:08 | 6.05209 | 99.78268 | 5125 ft | 268 kts | 301° |
| 2026-04-25 08:08 | 6.06180 | 99.76690 | 4800 ft | 266 kts | 302° |
| 2026-04-25 08:08 | 6.07164 | 99.75105 | 4422 ft | 268 kts | 301° |
| 2026-04-25 08:09 | 6.08129 | 99.73526 | 4127 ft | 265 kts | 301° |
| 2026-04-25 08:09 | 6.09094 | 99.71959 | 4007 ft | 263 kts | 301° |
| 2026-04-25 08:09 | 6.10053 | 99.70404 | 3977 ft | 260 kts | 300° |
| 2026-04-25 08:09 | 6.11009 | 99.68892 | 3808 ft | 252 kts | 304° |
| 2026-04-25 08:10 | 6.12133 | 99.67584 | 3634 ft | 244 kts | 316° |
| 2026-04-25 08:10 | 6.13440 | 99.66544 | 3427 ft | 239 kts | 322° |
| 2026-04-25 08:10 | 6.14803 | 99.65571 | 3107 ft | 239 kts | 323° |
| 2026-04-25 08:10 | 6.16163 | 99.64611 | 2785 ft | 239 kts | 323° |
| 2026-04-25 08:11 | 6.17553 | 99.63724 | 2496 ft | 239 kts | 337° |
| 2026-04-25 08:11 | 6.19184 | 99.63610 | 2170 ft | 241 kts | 16° |
| 2026-04-25 08:11 | 6.20667 | 99.64343 | 2108 ft | 237 kts | 32° |
| 2026-04-25 08:11 | 6.22007 | 99.65318 | 2094 ft | 235 kts | 35° |
| 2026-04-25 08:12 | 6.23290 | 99.66258 | 2021 ft | 225 kts | 35° |
| 2026-04-25 08:12 | 6.24546 | 99.67130 | 1774 ft | 214 kts | 32° |
| 2026-04-25 08:12 | 6.25754 | 99.67944 | 1508 ft | 206 kts | 33° |
| 2026-04-25 08:12 | 6.26897 | 99.68716 | 1310 ft | 192 kts | 32° |
| 2026-04-25 08:13 | 6.27993 | 99.69460 | 1002 ft | 185 kts | 34° |
| 2026-04-25 08:13 | 6.29028 | 99.70167 | 740 ft | 177 kts | 33° |
| 2026-04-25 08:13 | 6.30018 | 99.70843 | 518 ft | 165 kts | 32° |
| 2026-04-25 08:14 | 6.31765 | 99.72031 | 91 ft | 147 kts | 32° |
| 2026-04-25 08:14 | 6.32582 | 99.72587 | 23 ft | 133 kts | 34° |
| 2026-04-25 08:14 | 6.33217 | 99.73023 | 24 ft | 85 kts | 34° |
| 2026-04-25 08:14 | 6.33572 | 99.73267 | 27 ft | 41 kts | 33° |
| 2026-04-25 08:15 | 6.33700 | 99.73355 | 28 ft | 12 kts | 23° |
| 2026-04-25 08:15 | 6.33771 | 99.73318 | 28 ft | 13 kts | 304° |
| 2026-04-25 08:15 | 6.33782 | 99.73299 | 27 ft | 0 kts | 304° |
| 2026-04-25 08:15 | 6.33787 | 99.73292 | 27 ft | 1 kts | 304° |
| 2026-04-25 08:16 | 6.33795 | 99.73281 | 27 ft | 2 kts | 304° |
| 2026-04-25 08:16 | 6.33805 | 99.73265 | 28 ft | 3 kts | 304° |
| 2026-04-25 08:16 | 6.33824 | 99.73237 | 28 ft | 5 kts | 303° |
| 2026-04-25 08:16 | 6.33845 | 99.73206 | 29 ft | 5 kts | 305° |
| 2026-04-25 08:17 | 6.33890 | 99.73194 | 29 ft | 8 kts | 22° |
| 2026-04-25 08:17 | 6.33940 | 99.73229 | 30 ft | 8 kts | 35° |
| 2026-04-25 08:17 | 6.33985 | 99.73259 | 31 ft | 6 kts | 31° |
| 2026-04-25 08:17 | 6.34007 | 99.73270 | 32 ft | 2 kts | 8° |
| 2026-04-25 08:18 | 6.34021 | 99.73264 | 32 ft | 2 kts | 317° |
| 2026-04-25 08:18 | 6.34028 | 99.73254 | 32 ft | 0 kts | 301° |
| 2026-04-25 08:18 | 6.34028 | 99.73253 | 32 ft | 0 kts | 301° |
| 2026-04-25 08:18 | 6.34033 | 99.73245 | 32 ft | 2 kts | 303° |
| 2026-04-25 08:19 | 6.34043 | 99.73229 | 33 ft | 2 kts | 303° |
| 2026-04-25 08:19 | 6.34047 | 99.73224 | 33 ft | 0 kts | 303° |